KWJF/WJF METAR and TAF weather

Enter ICAO airport designator
Station Type Date Time Source
KWJF METAR 2019/08/20 09:56 UTC NOAA

KWJF 200956Z AUTO 24006KT 10SM CLR 22/07 A2997 RMK AO2 SLP125 T02170072


Station Type Date Time Source
KWJF Decoded METAR 2019/08/20 09:56 UTC NOAA

LANCASTER FOX AIRFIELD, CA, United States (KWJF) 34-44N 118-13W
Aug 20, 2019 - 05:56 AM EDT / 2019.08.20 0956 UTC
Wind: from the WSW (240 degrees) at 7 MPH (6 KT):0
Visibility: 10 mile(s):0
Sky conditions: clear
Temperature: 71.1 F (21.7 C)
Dew Point: 45.0 F (7.2 C)
Relative Humidity: 39%
Pressure (altimeter): 29.97 in. Hg (1014 hPa)
ob: KWJF 200956Z AUTO 24006KT 10SM CLR 22/07 A2997 RMK AO2 SLP125 T02170072
cycle: 10

Station Type Date Time Source
KWJF TAF 2019/08/20 06:36 UTC NOAA

TAF KWJF 200535Z 2006/2106 25010KT P6SM SKC
FM200900 29005KT P6SM SKC
FM201500 VRB03KT P6SM SKC
FM202000 22012KT P6SM SKC
FM202200 23015G25KT P6SM SKC
FM210200 25015KT P6SM SKC

Example: see airport list